sensor_id;sensor_type;location;lat;lon;timestamp;pressure;altitude;pressure_sealevel;temperature;humidity
59493;BME280;45497;43.996;22.876;2023-01-26T00:00:58;102270.75;;;3.50;56.43
59493;BME280;45497;43.996;22.876;2023-01-26T00:03:24;102272.84;;;3.43;57.02
59493;BME280;45497;43.996;22.876;2023-01-26T00:05:50;102271.56;;;3.51;56.75
59493;BME280;45497;43.996;22.876;2023-01-26T00:08:15;102263.13;;;3.45;56.72
59493;BME280;45497;43.996;22.876;2023-01-26T00:10:41;102268.78;;;3.38;56.73
59493;BME280;45497;43.996;22.876;2023-01-26T00:13:18;102246.44;;;2.99;57.55
59493;BME280;45497;43.996;22.876;2023-01-26T00:15:47;102249.63;;;2.72;58.52
59493;BME280;45497;43.996;22.876;2023-01-26T00:18:13;102257.13;;;2.62;58.65
59493;BME280;45497;43.996;22.876;2023-01-26T00:20:39;102249.44;;;2.59;58.34
59493;BME280;45497;43.996;22.876;2023-01-26T00:23:04;102247.50;;;2.63;58.57
59493;BME280;45497;43.996;22.876;2023-01-26T00:25:30;102255.38;;;2.45;58.85
59493;BME280;45497;43.996;22.876;2023-01-26T00:27:55;102257.38;;;2.40;58.97
59493;BME280;45497;43.996;22.876;2023-01-26T00:30:21;102257.59;;;2.53;58.84
59493;BME280;45497;43.996;22.876;2023-01-26T00:32:47;102269.44;;;2.43;58.85
59493;BME280;45497;43.996;22.876;2023-01-26T00:35:12;102271.09;;;2.45;59.05
59493;BME280;45497;43.996;22.876;2023-01-26T00:37:40;102263.22;;;2.45;58.88
59493;BME280;45497;43.996;22.876;2023-01-26T00:40:06;102255.84;;;2.36;59.15
59493;BME280;45497;43.996;22.876;2023-01-26T00:42:32;102260.06;;;2.21;59.51
59493;BME280;45497;43.996;22.876;2023-01-26T00:44:57;102258.16;;;2.25;59.31
59493;BME280;45497;43.996;22.876;2023-01-26T00:47:23;102254.94;;;2.20;59.67
59493;BME280;45497;43.996;22.876;2023-01-26T00:49:48;102245.69;;;2.30;59.44
59493;BME280;45497;43.996;22.876;2023-01-26T00:52:14;102253.53;;;2.30;59.85
59493;BME280;45497;43.996;22.876;2023-01-26T00:54:39;102244.44;;;2.37;59.63
59493;BME280;45497;43.996;22.876;2023-01-26T00:57:05;102232.13;;;2.39;58.87
59493;BME280;45497;43.996;22.876;2023-01-26T00:59:30;102247.13;;;2.36;59.26
59493;BME280;45497;43.996;22.876;2023-01-26T01:01:57;102245.13;;;2.41;59.53
59493;BME280;45497;43.996;22.876;2023-01-26T01:04:23;102228.44;;;2.43;59.29
59493;BME280;45497;43.996;22.876;2023-01-26T01:06:50;102242.59;;;2.39;59.63
59493;BME280;45497;43.996;22.876;2023-01-26T01:09:15;102230.72;;;2.49;59.34
59493;BME280;45497;43.996;22.876;2023-01-26T01:11:41;102233.13;;;2.70;58.73
59493;BME280;45497;43.996;22.876;2023-01-26T01:14:08;102232.63;;;2.63;58.85
59493;BME280;45497;43.996;22.876;2023-01-26T01:16:34;102235.13;;;2.49;59.43
59493;BME280;45497;43.996;22.876;2023-01-26T01:18:59;102236.91;;;2.48;59.37
59493;BME280;45497;43.996;22.876;2023-01-26T01:21:24;102237.28;;;2.41;59.68
59493;BME280;45497;43.996;22.876;2023-01-26T01:23:50;102226.06;;;2.39;59.82
59493;BME280;45497;43.996;22.876;2023-01-26T01:26:16;102221.22;;;2.31;59.89
59493;BME280;45497;43.996;22.876;2023-01-26T01:28:43;102227.22;;;2.33;59.83
59493;BME280;45497;43.996;22.876;2023-01-26T01:31:14;102214.75;;;2.38;59.91
59493;BME280;45497;43.996;22.876;2023-01-26T01:33:40;102217.22;;;2.41;59.60
59493;BME280;45497;43.996;22.876;2023-01-26T01:36:08;102217.56;;;2.51;59.54
59493;BME280;45497;43.996;22.876;2023-01-26T01:38:34;102201.72;;;2.54;59.59
59493;BME280;45497;43.996;22.876;2023-01-26T01:41:00;102198.03;;;2.41;59.71
59493;BME280;45497;43.996;22.876;2023-01-26T01:43:27;102203.16;;;2.60;59.43
59493;BME280;45497;43.996;22.876;2023-01-26T01:45:53;102193.78;;;2.72;59.07
59493;BME280;45497;43.996;22.876;2023-01-26T01:50:49;102187.88;;;2.68;59.22
59493;BME280;45497;43.996;22.876;2023-01-26T01:53:20;102179.47;;;2.45;59.77
59493;BME280;45497;43.996;22.876;2023-01-26T01:55:56;102184.91;;;2.58;59.51
59493;BME280;45497;43.996;22.876;2023-01-26T01:58:22;102183.72;;;2.64;59.11
59493;BME280;45497;43.996;22.876;2023-01-26T02:00:48;102189.72;;;2.66;59.05
59493;BME280;45497;43.996;22.876;2023-01-26T02:03:15;102183.31;;;2.56;59.30
59493;BME280;45497;43.996;22.876;2023-01-26T02:06:00;102187.09;;;2.66;59.06
59493;BME280;45497;43.996;22.876;2023-01-26T02:08:44;102187.72;;;2.71;58.92
59493;BME280;45497;43.996;22.876;2023-01-26T02:11:15;102183.63;;;2.49;59.76
59493;BME280;45497;43.996;22.876;2023-01-26T02:13:42;102172.63;;;2.43;59.62
59493;BME280;45497;43.996;22.876;2023-01-26T02:16:09;102168.84;;;2.64;59.24
59493;BME280;45497;43.996;22.876;2023-01-26T02:18:34;102164.66;;;2.78;58.68
59493;BME280;45497;43.996;22.876;2023-01-26T02:21:06;102183.16;;;2.75;58.83
59493;BME280;45497;43.996;22.876;2023-01-26T02:26:30;102155.59;;;2.52;59.58
59493;BME280;45497;43.996;22.876;2023-01-26T02:28:57;102155.75;;;2.64;59.24
59493;BME280;45497;43.996;22.876;2023-01-26T02:31:24;102149.53;;;2.67;59.21
59493;BME280;45497;43.996;22.876;2023-01-26T02:33:50;102145.13;;;2.52;59.55
59493;BME280;45497;43.996;22.876;2023-01-26T02:39:01;102140.97;;;2.47;59.64
59493;BME280;45497;43.996;22.876;2023-01-26T02:41:28;102140.31;;;2.60;59.47
59493;BME280;45497;43.996;22.876;2023-01-26T02:44:13;102138.88;;;2.54;59.65
59493;BME280;45497;43.996;22.876;2023-01-26T02:46:39;102140.81;;;2.66;59.50
59493;BME280;45497;43.996;22.876;2023-01-26T02:49:04;102130.50;;;2.47;59.90
59493;BME280;45497;43.996;22.876;2023-01-26T02:51:48;102132.38;;;2.45;59.95
59493;BME280;45497;43.996;22.876;2023-01-26T02:54:13;102137.56;;;2.63;59.33
59493;BME280;45497;43.996;22.876;2023-01-26T02:56:58;102133.63;;;2.70;59.48
59493;BME280;45497;43.996;22.876;2023-01-26T02:59:24;102135.44;;;2.85;59.09
59493;BME280;45497;43.996;22.876;2023-01-26T03:01:50;102132.06;;;2.99;58.76
59493;BME280;45497;43.996;22.876;2023-01-26T03:04:16;102118.97;;;2.83;58.91
59493;BME280;45497;43.996;22.876;2023-01-26T03:06:42;102118.13;;;2.67;59.72
59493;BME280;45497;43.996;22.876;2023-01-26T03:09:07;102119.63;;;2.87;59.36
59493;BME280;45497;43.996;22.876;2023-01-26T03:11:33;102115.31;;;2.86;59.00
59493;BME280;45497;43.996;22.876;2023-01-26T03:14:13;102115.75;;;2.94;58.97
59493;BME280;45497;43.996;22.876;2023-01-26T03:16:40;102110.66;;;2.75;59.20
59493;BME280;45497;43.996;22.876;2023-01-26T03:19:07;102097.84;;;2.86;59.24
59493;BME280;45497;43.996;22.876;2023-01-26T03:21:33;102099.13;;;2.79;59.48
59493;BME280;45497;43.996;22.876;2023-01-26T03:24:17;102092.28;;;2.45;60.10
59493;BME280;45497;43.996;22.876;2023-01-26T03:27:01;102095.22;;;2.55;60.21
59493;BME280;45497;43.996;22.876;2023-01-26T03:29:45;102096.75;;;2.59;60.04
59493;BME280;45497;43.996;22.876;2023-01-26T03:32:11;102083.06;;;2.54;60.21
59493;BME280;45497;43.996;22.876;2023-01-26T03:34:36;102088.03;;;2.58;60.18
59493;BME280;45497;43.996;22.876;2023-01-26T03:37:03;102092.19;;;2.62;60.23
59493;BME280;45497;43.996;22.876;2023-01-26T03:39:28;102087.38;;;2.55;60.20
59493;BME280;45497;43.996;22.876;2023-01-26T03:42:12;102073.84;;;2.46;60.40
59493;BME280;45497;43.996;22.876;2023-01-26T03:44:56;102077.69;;;2.07;61.16
59493;BME280;45497;43.996;22.876;2023-01-26T03:47:40;102075.59;;;2.30;60.89
59493;BME280;45497;43.996;22.876;2023-01-26T03:50:24;102071.75;;;2.53;60.38
59493;BME280;45497;43.996;22.876;2023-01-26T03:53:16;102077.72;;;2.55;60.11
59493;BME280;45497;43.996;22.876;2023-01-26T03:56:01;102069.97;;;2.54;60.30
59493;BME280;45497;43.996;22.876;2023-01-26T03:58:52;102067.00;;;2.28;60.88
59493;BME280;45497;43.996;22.876;2023-01-26T04:01:21;102067.94;;;2.43;60.46
59493;BME280;45497;43.996;22.876;2023-01-26T04:03:51;102058.72;;;2.52;59.96
59493;BME280;45497;43.996;22.876;2023-01-26T04:06:36;102047.41;;;2.35;60.35
59493;BME280;45497;43.996;22.876;2023-01-26T04:09:21;102058.41;;;2.42;60.48
59493;BME280;45497;43.996;22.876;2023-01-26T04:11:47;102059.16;;;2.60;59.92
59493;BME280;45497;43.996;22.876;2023-01-26T04:14:14;102039.81;;;2.46;60.17
59493;BME280;45497;43.996;22.876;2023-01-26T04:16:59;102052.81;;;2.48;60.11
59493;BME280;45497;43.996;22.876;2023-01-26T04:19:44;102051.16;;;2.63;59.90
59493;BME280;45497;43.996;22.876;2023-01-26T04:22:28;102033.31;;;2.54;59.96
59493;BME280;45497;43.996;22.876;2023-01-26T04:24:54;102041.19;;;2.38;60.67
59493;BME280;45497;43.996;22.876;2023-01-26T04:27:19;102040.31;;;2.21;61.30
59493;BME280;45497;43.996;22.876;2023-01-26T04:29:45;102043.53;;;2.42;61.18
59493;BME280;45497;43.996;22.876;2023-01-26T04:32:10;102043.88;;;2.36;61.24
59493;BME280;45497;43.996;22.876;2023-01-26T04:34:36;102036.19;;;2.33;61.67
59493;BME280;45497;43.996;22.876;2023-01-26T04:37:01;102033.50;;;2.19;62.10
59493;BME280;45497;43.996;22.876;2023-01-26T04:39:27;102029.25;;;2.00;62.94
59493;BME280;45497;43.996;22.876;2023-01-26T04:41:52;102022.47;;;1.96;63.05
59493;BME280;45497;43.996;22.876;2023-01-26T04:44:18;102021.47;;;1.99;62.91
59493;BME280;45497;43.996;22.876;2023-01-26T04:46:43;102021.59;;;1.80;63.75
59493;BME280;45497;43.996;22.876;2023-01-26T04:49:10;102006.47;;;2.02;63.09
59493;BME280;45497;43.996;22.876;2023-01-26T04:51:35;102013.22;;;2.06;62.79
59493;BME280;45497;43.996;22.876;2023-01-26T04:54:01;102009.13;;;1.85;63.00
59493;BME280;45497;43.996;22.876;2023-01-26T04:56:29;102009.78;;;1.72;63.51
59493;BME280;45497;43.996;22.876;2023-01-26T04:58:57;101995.66;;;1.92;62.98
59493;BME280;45497;43.996;22.876;2023-01-26T05:01:23;101994.16;;;2.04;62.88
59493;BME280;45497;43.996;22.876;2023-01-26T05:03:48;101998.81;;;2.15;62.51
59493;BME280;45497;43.996;22.876;2023-01-26T05:06:14;101992.63;;;2.32;61.77
59493;BME280;45497;43.996;22.876;2023-01-26T05:08:40;101995.53;;;2.27;61.81
59493;BME280;45497;43.996;22.876;2023-01-26T05:11:06;102001.75;;;2.41;61.44
59493;BME280;45497;43.996;22.876;2023-01-26T05:13:32;101997.03;;;2.16;62.04
59493;BME280;45497;43.996;22.876;2023-01-26T05:15:59;102003.00;;;2.18;62.13
59493;BME280;45497;43.996;22.876;2023-01-26T05:18:25;102003.00;;;2.18;62.01
59493;BME280;45497;43.996;22.876;2023-01-26T05:20:50;102005.97;;;2.12;62.50
59493;BME280;45497;43.996;22.876;2023-01-26T05:23:16;102015.03;;;2.22;62.29
59493;BME280;45497;43.996;22.876;2023-01-26T05:25:41;102008.53;;;2.29;61.93
59493;BME280;45497;43.996;22.876;2023-01-26T05:28:07;102004.63;;;2.04;62.71
59493;BME280;45497;43.996;22.876;2023-01-26T05:30:32;102010.84;;;2.18;62.60
59493;BME280;45497;43.996;22.876;2023-01-26T05:33:05;102012.47;;;2.20;62.68
59493;BME280;45497;43.996;22.876;2023-01-26T05:35:31;102000.75;;;2.12;62.98
59493;BME280;45497;43.996;22.876;2023-01-26T05:37:57;102010.69;;;2.21;62.67
59493;BME280;45497;43.996;22.876;2023-01-26T05:40:22;102012.91;;;2.13;62.41
59493;BME280;45497;43.996;22.876;2023-01-26T05:42:49;102015.09;;;2.20;62.42
59493;BME280;45497;43.996;22.876;2023-01-26T05:45:15;102007.91;;;2.08;62.89
59493;BME280;45497;43.996;22.876;2023-01-26T05:47:42;102012.03;;;2.12;62.72
59493;BME280;45497;43.996;22.876;2023-01-26T05:50:09;102018.63;;;2.19;62.38
59493;BME280;45497;43.996;22.876;2023-01-26T05:52:35;102014.84;;;2.09;62.18
59493;BME280;45497;43.996;22.876;2023-01-26T05:55:01;102021.00;;;2.08;62.24
59493;BME280;45497;43.996;22.876;2023-01-26T05:57:26;102008.56;;;1.96;62.56
59493;BME280;45497;43.996;22.876;2023-01-26T05:59:52;101998.94;;;1.80;62.46
59493;BME280;45497;43.996;22.876;2023-01-26T06:02:17;102004.47;;;2.07;61.77
59493;BME280;45497;43.996;22.876;2023-01-26T06:04:43;101999.97;;;2.09;61.40
59493;BME280;45497;43.996;22.876;2023-01-26T06:07:09;102000.13;;;2.06;61.72
59493;BME280;45497;43.996;22.876;2023-01-26T06:09:34;101986.91;;;2.09;61.67
59493;BME280;45497;43.996;22.876;2023-01-26T06:12:01;101993.66;;;2.14;61.31
59493;BME280;45497;43.996;22.876;2023-01-26T06:14:26;101986.47;;;2.17;61.27
59493;BME280;45497;43.996;22.876;2023-01-26T06:16:52;101987.91;;;2.07;61.56
59493;BME280;45497;43.996;22.876;2023-01-26T06:19:18;101980.22;;;1.88;61.99
59493;BME280;45497;43.996;22.876;2023-01-26T06:21:44;101980.81;;;1.93;62.59
59493;BME280;45497;43.996;22.876;2023-01-26T06:24:09;101975.06;;;1.86;62.34
59493;BME280;45497;43.996;22.876;2023-01-26T06:26:35;101978.06;;;1.63;63.44
59493;BME280;45497;43.996;22.876;2023-01-26T06:29:00;101983.44;;;1.60;63.43
59493;BME280;45497;43.996;22.876;2023-01-26T06:31:26;101990.00;;;1.51;64.11
59493;BME280;45497;43.996;22.876;2023-01-26T06:33:54;101984.19;;;1.62;64.07
59493;BME280;45497;43.996;22.876;2023-01-26T06:36:19;101986.81;;;1.62;64.21
59493;BME280;45497;43.996;22.876;2023-01-26T06:38:46;101982.72;;;1.74;63.81
59493;BME280;45497;43.996;22.876;2023-01-26T06:41:12;101984.09;;;1.81;63.63
59493;BME280;45497;43.996;22.876;2023-01-26T06:43:38;101992.00;;;1.79;63.60
59493;BME280;45497;43.996;22.876;2023-01-26T06:46:04;101982.59;;;1.59;64.07
59493;BME280;45497;43.996;22.876;2023-01-26T06:48:32;101999.97;;;1.60;64.04
59493;BME280;45497;43.996;22.876;2023-01-26T06:53:46;101993.22;;;1.56;64.61
59493;BME280;45497;43.996;22.876;2023-01-26T06:56:13;101983.69;;;1.55;64.70
59493;BME280;45497;43.996;22.876;2023-01-26T06:58:38;101978.19;;;1.77;64.12
59493;BME280;45497;43.996;22.876;2023-01-26T07:01:04;101989.72;;;1.89;63.71
59493;BME280;45497;43.996;22.876;2023-01-26T07:03:29;101975.66;;;1.91;63.76
59493;BME280;45497;43.996;22.876;2023-01-26T07:05:56;101978.69;;;1.84;64.07
59493;BME280;45497;43.996;22.876;2023-01-26T07:08:21;101978.06;;;1.63;64.06
59493;BME280;45497;43.996;22.876;2023-01-26T07:10:48;101971.16;;;1.78;64.08
59493;BME280;45497;43.996;22.876;2023-01-26T07:13:14;101973.56;;;1.98;63.43
59493;BME280;45497;43.996;22.876;2023-01-26T07:15:39;101960.53;;;1.65;63.40
59493;BME280;45497;43.996;22.876;2023-01-26T07:18:05;101968.09;;;1.53;63.93
59493;BME280;45497;43.996;22.876;2023-01-26T07:20:30;101965.97;;;1.60;63.56
59493;BME280;45497;43.996;22.876;2023-01-26T07:22:58;101967.03;;;1.74;63.30
59493;BME280;45497;43.996;22.876;2023-01-26T07:25:24;101953.47;;;1.83;62.96
59493;BME280;45497;43.996;22.876;2023-01-26T07:27:57;101964.06;;;1.64;63.30
59493;BME280;45497;43.996;22.876;2023-01-26T07:30:23;101956.59;;;1.74;63.32
59493;BME280;45497;43.996;22.876;2023-01-26T07:32:49;101957.88;;;1.82;62.99
59493;BME280;45497;43.996;22.876;2023-01-26T07:35:14;101952.72;;;1.97;62.35
59493;BME280;45497;43.996;22.876;2023-01-26T07:37:40;101948.31;;;1.81;62.63
59493;BME280;45497;43.996;22.876;2023-01-26T07:40:06;101946.44;;;1.67;62.98
59493;BME280;45497;43.996;22.876;2023-01-26T07:42:31;101943.25;;;1.62;63.34
59493;BME280;45497;43.996;22.876;2023-01-26T07:44:57;101944.84;;;1.65;62.62
59493;BME280;45497;43.996;22.876;2023-01-26T07:47:24;101939.66;;;1.47;62.81
59493;BME280;45497;43.996;22.876;2023-01-26T07:49:49;101936.66;;;1.55;63.17
59493;BME280;45497;43.996;22.876;2023-01-26T07:52:15;101928.81;;;1.71;62.91
59493;BME280;45497;43.996;22.876;2023-01-26T07:54:40;101934.50;;;1.95;62.54
59493;BME280;45497;43.996;22.876;2023-01-26T07:57:06;101929.94;;;1.83;62.46
59493;BME280;45497;43.996;22.876;2023-01-26T07:59:32;101924.13;;;1.78;62.88
59493;BME280;45497;43.996;22.876;2023-01-26T08:01:58;101932.28;;;2.03;62.07
59493;BME280;45497;43.996;22.876;2023-01-26T08:04:23;101925.22;;;1.74;62.82
59493;BME280;45497;43.996;22.876;2023-01-26T08:06:51;101929.94;;;1.83;62.51
59493;BME280;45497;43.996;22.876;2023-01-26T08:09:17;101936.16;;;1.64;62.58
59493;BME280;45497;43.996;22.876;2023-01-26T08:11:43;101933.56;;;1.64;62.82
59493;BME280;45497;43.996;22.876;2023-01-26T08:14:08;101931.66;;;1.84;62.22
59493;BME280;45497;43.996;22.876;2023-01-26T08:16:34;101936.28;;;1.79;63.06
59493;BME280;45497;43.996;22.876;2023-01-26T08:19:00;101937.81;;;1.99;62.74
59493;BME280;45497;43.996;22.876;2023-01-26T08:21:27;101945.28;;;1.73;62.90
59493;BME280;45497;43.996;22.876;2023-01-26T08:23:52;101926.31;;;1.69;63.09
59493;BME280;45497;43.996;22.876;2023-01-26T08:26:18;101932.19;;;1.57;63.16
59493;BME280;45497;43.996;22.876;2023-01-26T08:28:45;101927.53;;;1.46;63.66
59493;BME280;45497;43.996;22.876;2023-01-26T08:31:12;101928.34;;;1.80;63.45
59493;BME280;45497;43.996;22.876;2023-01-26T08:33:41;101925.97;;;1.76;63.29
59493;BME280;45497;43.996;22.876;2023-01-26T08:36:10;101931.16;;;1.60;63.74
59493;BME280;45497;43.996;22.876;2023-01-26T08:38:36;101918.88;;;1.78;63.21
59493;BME280;45497;43.996;22.876;2023-01-26T08:41:02;101920.75;;;1.76;63.17
59493;BME280;45497;43.996;22.876;2023-01-26T08:43:28;101929.59;;;1.89;63.14
59493;BME280;45497;43.996;22.876;2023-01-26T08:45:54;101930.53;;;1.88;63.23
59493;BME280;45497;43.996;22.876;2023-01-26T08:48:20;101917.88;;;1.80;63.57
59493;BME280;45497;43.996;22.876;2023-01-26T08:50:45;101917.38;;;1.74;63.62
59493;BME280;45497;43.996;22.876;2023-01-26T08:53:11;101910.53;;;1.55;63.84
59493;BME280;45497;43.996;22.876;2023-01-26T08:55:37;101917.00;;;1.48;64.38
59493;BME280;45497;43.996;22.876;2023-01-26T08:58:02;101918.63;;;1.66;64.21
59493;BME280;45497;43.996;22.876;2023-01-26T09:00:28;101915.34;;;1.63;64.29
59493;BME280;45497;43.996;22.876;2023-01-26T09:03:02;101920.09;;;2.04;63.40
59493;BME280;45497;43.996;22.876;2023-01-26T09:05:31;101896.94;;;1.96;63.76
59493;BME280;45497;43.996;22.876;2023-01-26T09:07:57;101896.78;;;2.15;63.34
59493;BME280;45497;43.996;22.876;2023-01-26T09:10:22;101893.88;;;2.36;63.00
59493;BME280;45497;43.996;22.876;2023-01-26T09:12:48;101881.16;;;2.14;63.16
59493;BME280;45497;43.996;22.876;2023-01-26T09:15:13;101878.31;;;2.18;62.99
59493;BME280;45497;43.996;22.876;2023-01-26T09:17:39;101880.13;;;2.32;62.78
59493;BME280;45497;43.996;22.876;2023-01-26T09:20:07;101885.47;;;2.31;63.08
59493;BME280;45497;43.996;22.876;2023-01-26T09:22:33;101886.25;;;2.17;63.69
59493;BME280;45497;43.996;22.876;2023-01-26T09:24:58;101865.41;;;2.15;63.71
59493;BME280;45497;43.996;22.876;2023-01-26T09:27:24;101862.84;;;2.29;63.38
59493;BME280;45497;43.996;22.876;2023-01-26T09:29:49;101861.63;;;2.35;62.76
59493;BME280;45497;43.996;22.876;2023-01-26T09:32:15;101861.63;;;2.35;62.97
59493;BME280;45497;43.996;22.876;2023-01-26T09:34:40;101859.25;;;2.16;63.23
59493;BME280;45497;43.996;22.876;2023-01-26T09:37:06;101866.50;;;2.11;63.44
59493;BME280;45497;43.996;22.876;2023-01-26T09:39:32;101855.91;;;2.28;62.92
59493;BME280;45497;43.996;22.876;2023-01-26T09:42:20;101847.97;;;2.30;63.10
59493;BME280;45497;43.996;22.876;2023-01-26T09:50:36;101835.78;;;2.15;63.64
59493;BME280;45497;43.996;22.876;2023-01-26T09:53:11;101826.31;;;2.12;63.83
59493;BME280;45497;43.996;22.876;2023-01-26T09:55:40;101835.75;;;2.31;64.12
59493;BME280;45497;43.996;22.876;2023-01-26T09:58:16;101831.28;;;2.33;63.59
59493;BME280;45497;43.996;22.876;2023-01-26T10:00:47;101817.72;;;2.10;64.27
59493;BME280;45497;43.996;22.876;2023-01-26T10:03:28;101823.69;;;2.28;63.98
59493;BME280;45497;43.996;22.876;2023-01-26T10:06:01;101821.09;;;2.42;63.52
59493;BME280;45497;43.996;22.876;2023-01-26T10:08:30;101821.81;;;2.30;63.87
59493;BME280;45497;43.996;22.876;2023-01-26T10:11:05;101801.16;;;1.95;64.86
59493;BME280;45497;43.996;22.876;2023-01-26T10:13:32;101800.69;;;2.03;64.96
59493;BME280;45497;43.996;22.876;2023-01-26T10:16:05;101803.66;;;2.13;64.55
59493;BME280;45497;43.996;22.876;2023-01-26T10:18:46;101804.44;;;2.29;64.00
59493;BME280;45497;43.996;22.876;2023-01-26T10:21:19;101802.03;;;2.40;63.90
59493;BME280;45497;43.996;22.876;2023-01-26T10:23:48;101785.88;;;2.48;64.02
59493;BME280;45497;43.996;22.876;2023-01-26T10:26:22;101775.41;;;2.62;63.68
59493;BME280;45497;43.996;22.876;2023-01-26T10:28:49;101785.22;;;2.44;64.10
59493;BME280;45497;43.996;22.876;2023-01-26T10:31:19;101765.91;;;2.17;64.78
59493;BME280;45497;43.996;22.876;2023-01-26T10:33:57;101772.06;;;2.16;64.97
59493;BME280;45497;43.996;22.876;2023-01-26T10:36:23;101769.97;;;2.37;64.45
59493;BME280;45497;43.996;22.876;2023-01-26T10:38:51;101762.69;;;2.42;64.46
59493;BME280;45497;43.996;22.876;2023-01-26T10:41:27;101748.63;;;2.28;64.51
59493;BME280;45497;43.996;22.876;2023-01-26T10:46:27;101741.03;;;2.68;63.95
59493;BME280;45497;43.996;22.876;2023-01-26T10:48:55;101727.72;;;2.57;63.80
59493;BME280;45497;43.996;22.876;2023-01-26T10:51:27;101732.97;;;2.57;64.36
59493;BME280;45497;43.996;22.876;2023-01-26T10:54:12;101732.59;;;2.49;64.39
59493;BME280;45497;43.996;22.876;2023-01-26T10:56:58;101738.69;;;2.78;63.91
59493;BME280;45497;43.996;22.876;2023-01-26T10:59:26;101718.13;;;2.72;64.24
59493;BME280;45497;43.996;22.876;2023-01-26T11:04:37;101717.72;;;2.49;64.67
59493;BME280;45497;43.996;22.876;2023-01-26T11:07:25;101709.41;;;2.43;65.16
59493;BME280;45497;43.996;22.876;2023-01-26T11:09:52;101690.72;;;2.49;64.54
59493;BME280;45497;43.996;22.876;2023-01-26T11:12:19;101699.03;;;2.70;64.20
59493;BME280;45497;43.996;22.876;2023-01-26T11:15:03;101687.72;;;2.70;64.22
59493;BME280;45497;43.996;22.876;2023-01-26T11:17:37;101678.72;;;2.88;63.99
59493;BME280;45497;43.996;22.876;2023-01-26T11:28:55;101686.97;;;2.53;65.12
59493;BME280;45497;43.996;22.876;2023-01-26T11:45:35;101652.13;;;2.67;64.76
59493;BME280;45497;43.996;22.876;2023-01-26T11:48:21;101649.34;;;2.56;64.55
59493;BME280;45497;43.996;22.876;2023-01-26T11:51:03;101643.63;;;2.35;64.99
59493;BME280;45497;43.996;22.876;2023-01-26T11:56:33;101636.41;;;2.67;64.54
59493;BME280;45497;43.996;22.876;2023-01-26T11:59:09;101636.28;;;2.83;64.56
59493;BME280;45497;43.996;22.876;2023-01-26T12:01:40;101624.16;;;2.67;64.37
59493;BME280;45497;43.996;22.876;2023-01-26T12:04:18;101631.38;;;2.49;64.58
59493;BME280;45497;43.996;22.876;2023-01-26T12:06:46;101622.69;;;2.35;65.04
59493;BME280;45497;43.996;22.876;2023-01-26T12:09:22;101624.47;;;2.48;65.17
59493;BME280;45497;43.996;22.876;2023-01-26T12:12:04;101620.53;;;2.56;65.29
59493;BME280;45497;43.996;22.876;2023-01-26T12:14:39;101609.00;;;2.73;64.86
59493;BME280;45497;43.996;22.876;2023-01-26T12:17:52;101612.06;;;2.38;65.08
59493;BME280;45497;43.996;22.876;2023-01-26T12:22:48;101600.28;;;2.45;65.21
59493;BME280;45497;43.996;22.876;2023-01-26T12:25:33;101590.66;;;2.73;64.71
59493;BME280;45497;43.996;22.876;2023-01-26T12:28:28;101582.91;;;2.71;64.66
59493;BME280;45497;43.996;22.876;2023-01-26T12:33:40;101570.81;;;2.83;63.93
59493;BME280;45497;43.996;22.876;2023-01-26T12:46:41;101539.13;;;3.00;63.61
59493;BME280;45497;43.996;22.876;2023-01-26T12:49:22;101541.44;;;2.92;63.46
59493;BME280;45497;43.996;22.876;2023-01-26T12:52:00;101540.06;;;2.86;63.54
59493;BME280;45497;43.996;22.876;2023-01-26T12:55:06;101550.31;;;2.62;63.74
59493;BME280;45497;43.996;22.876;2023-01-26T12:58:01;101544.47;;;2.72;63.71
59493;BME280;45497;43.996;22.876;2023-01-26T13:00:33;101544.47;;;2.72;64.00
59493;BME280;45497;43.996;22.876;2023-01-26T13:03:13;101547.09;;;2.72;64.21
59493;BME280;45497;43.996;22.876;2023-01-26T13:05:54;101536.72;;;2.97;63.46
59493;BME280;45497;43.996;22.876;2023-01-26T13:10:54;101527.81;;;3.00;63.39
59493;BME280;45497;43.996;22.876;2023-01-26T13:13:28;101518.50;;;2.68;64.15
59493;BME280;45497;43.996;22.876;2023-01-26T13:18:56;101520.41;;;3.06;63.50
59493;BME280;45497;43.996;22.876;2023-01-26T13:21:41;101525.97;;;3.15;63.45
59493;BME280;45497;43.996;22.876;2023-01-26T13:26:49;101534.16;;;3.10;63.64
59493;BME280;45497;43.996;22.876;2023-01-26T13:31:54;101523.84;;;3.07;63.59
59493;BME280;45497;43.996;22.876;2023-01-26T13:34:27;101526.97;;;2.86;63.75
59493;BME280;45497;43.996;22.876;2023-01-26T13:37:05;101522.94;;;2.81;64.28
59493;BME280;45497;43.996;22.876;2023-01-26T13:39:38;101514.28;;;2.93;64.16
59493;BME280;45497;43.996;22.876;2023-01-26T13:42:15;101509.03;;;2.93;64.50
59493;BME280;45497;43.996;22.876;2023-01-26T13:44:50;101508.22;;;2.93;64.37
59493;BME280;45497;43.996;22.876;2023-01-26T13:47:21;101510.00;;;2.92;64.39
59493;BME280;45497;43.996;22.876;2023-01-26T13:49:49;101506.69;;;3.03;64.09
59493;BME280;45497;43.996;22.876;2023-01-26T13:52:20;101496.56;;;2.57;64.99
59493;BME280;45497;43.996;22.876;2023-01-26T13:54:47;101512.00;;;2.61;65.24
59493;BME280;45497;43.996;22.876;2023-01-26T13:57:28;101503.00;;;2.65;65.54
59493;BME280;45497;43.996;22.876;2023-01-26T13:59:56;101502.09;;;2.79;64.99
59493;BME280;45497;43.996;22.876;2023-01-26T14:02:26;101501.00;;;3.09;64.21
59493;BME280;45497;43.996;22.876;2023-01-26T14:04:53;101508.34;;;3.17;63.88
59493;BME280;45497;43.996;22.876;2023-01-26T14:07:25;101498.41;;;3.35;63.25
59493;BME280;45497;43.996;22.876;2023-01-26T14:09:52;101498.09;;;3.01;64.00
59493;BME280;45497;43.996;22.876;2023-01-26T14:12:24;101504.44;;;2.97;64.33
59493;BME280;45497;43.996;22.876;2023-01-26T14:14:55;101510.28;;;2.87;64.44
59493;BME280;45497;43.996;22.876;2023-01-26T14:17:32;101502.50;;;2.73;64.82